createdAt,value
2022-08-25T00:02:03.185Z,19.00
2022-08-25T00:07:07.751Z,18.80
2022-08-25T00:12:10.483Z,18.70
2022-08-25T00:17:15.588Z,18.50
2022-08-25T00:22:18.305Z,18.40
2022-08-25T00:27:21.011Z,18.30
2022-08-25T00:32:25.560Z,18.30
2022-08-25T00:37:28.603Z,18.30
2022-08-25T00:42:31.517Z,18.20
2022-08-25T00:47:35.830Z,18.20
2022-08-25T00:52:42.703Z,18.20
2022-08-25T00:57:50.989Z,18.20
2022-08-25T01:02:56.681Z,18.40
2022-08-25T01:08:02.998Z,18.40
2022-08-25T01:13:16.722Z,18.30
2022-08-25T01:18:21.849Z,18.20
2022-08-25T01:23:27.071Z,18.40
2022-08-25T01:28:30.105Z,18.50
2022-08-25T01:33:32.801Z,18.30
2022-08-25T01:38:37.376Z,18.30
2022-08-25T01:43:40.419Z,18.40
2022-08-25T01:48:43.094Z,18.30
2022-08-25T01:53:47.097Z,18.20
2022-08-25T01:58:50.236Z,18.20
2022-08-25T02:03:55.364Z,18.30
2022-08-25T02:09:01.944Z,18.50
2022-08-25T02:14:05.711Z,18.40
2022-08-25T02:19:11.851Z,18.60
2022-08-25T02:24:16.508Z,18.70
2022-08-25T02:29:19.352Z,18.50
2022-08-25T02:34:23.344Z,18.30
2022-08-25T02:39:27.580Z,18.30
2022-08-25T02:44:31.725Z,18.30
2022-08-25T02:49:35.219Z,18.40
2022-08-25T02:54:39.287Z,18.50
2022-08-25T02:59:42.073Z,18.40
2022-08-25T03:04:45.239Z,18.10
2022-08-25T03:09:49.628Z,17.90
2022-08-25T03:14:52.285Z,17.80
2022-08-25T03:19:55.200Z,17.90
2022-08-25T03:25:24.048Z,18.20
2022-08-25T03:30:27.878Z,18.00
2022-08-25T03:35:30.999Z,18.20
2022-08-25T03:40:35.095Z,18.10
2022-08-25T03:45:41.507Z,18.00
2022-08-25T03:50:51.520Z,18.10
2022-08-25T03:55:57.527Z,17.90
2022-08-25T04:01:00.804Z,17.80
2022-08-25T04:06:04.518Z,18.00
2022-08-25T04:11:10.230Z,17.90
2022-08-25T04:16:14.303Z,17.80
2022-08-25T04:21:18.504Z,17.90
2022-08-25T04:26:24.839Z,18.10
2022-08-25T04:31:28.878Z,18.20
2022-08-25T04:36:32.151Z,18.30
2022-08-25T04:41:36.295Z,18.30
2022-08-25T04:46:38.999Z,18.20
2022-08-25T04:51:43.285Z,18.20
2022-08-25T04:56:47.275Z,18.40
2022-08-25T05:01:52.265Z,18.70
2022-08-25T05:06:55.092Z,19.20
2022-08-25T05:11:59.115Z,19.60
2022-08-25T05:17:02.427Z,19.90
2022-08-25T05:22:05.179Z,20.00
2022-08-25T05:27:09.200Z,20.10
2022-08-25T05:32:11.988Z,20.00
2022-08-25T05:37:14.761Z,20.00
2022-08-25T05:42:19.269Z,19.80
2022-08-25T05:47:22.292Z,19.60
2022-08-25T05:52:27.415Z,19.80
2022-08-25T05:57:31.404Z,20.00
2022-08-25T06:02:44.152Z,20.30
2022-08-25T06:07:47.374Z,20.60
2022-08-25T06:12:51.489Z,20.70
2022-08-25T06:18:00.960Z,20.90
2022-08-25T06:23:04.694Z,21.00
2022-08-25T06:28:08.667Z,21.00
2022-08-25T06:33:11.511Z,21.00
2022-08-25T06:38:14.808Z,21.40
2022-08-25T06:43:19.108Z,22.00
2022-08-25T06:48:23.821Z,22.40
2022-08-25T06:53:26.588Z,22.70
2022-08-25T06:58:31.198Z,22.80
2022-08-25T07:03:33.890Z,23.20
2022-08-25T07:08:37.147Z,23.50
2022-08-25T07:13:41.166Z,23.60
2022-08-25T07:18:44.846Z,23.90
2022-08-25T07:23:47.601Z,24.40
2022-08-25T07:28:52.171Z,24.40
2022-08-25T07:34:21.131Z,25.00
2022-08-25T07:39:25.429Z,25.70
2022-08-25T07:44:29.499Z,26.70
2022-08-25T07:49:35.897Z,27.70
2022-08-25T07:54:39.317Z,28.60
2022-08-25T07:59:43.972Z,28.60
2022-08-25T08:04:48.570Z,28.10
2022-08-25T08:10:00.386Z,28.30
2022-08-25T08:15:16.659Z,29.60
2022-08-25T08:20:23.237Z,32.40
2022-08-25T08:25:27.744Z,34.20
2022-08-25T08:30:32.117Z,35.00
2022-08-25T08:35:34.793Z,32.70
2022-08-25T08:41:15.178Z,31.50
2022-08-25T08:46:21.886Z,31.30
2022-08-25T08:51:32.809Z,31.00
2022-08-25T08:56:45.169Z,31.00
2022-08-25T09:01:59.033Z,31.20
2022-08-25T09:07:07.778Z,31.40
2022-08-25T09:12:21.315Z,31.90
2022-08-25T09:17:40.790Z,33.60
2022-08-25T09:22:53.823Z,36.30
2022-08-25T09:28:06.318Z,34.90
2022-08-25T09:33:13.073Z,34.50
2022-08-25T09:38:24.894Z,34.50
2022-08-25T09:43:33.484Z,34.50
2022-08-25T09:48:46.396Z,39.00
2022-08-25T09:53:55.144Z,40.30
2022-08-25T09:59:18.289Z,37.90
2022-08-25T10:04:29.123Z,36.70
2022-08-25T10:09:34.942Z,37.50
2022-08-25T10:14:44.433Z,36.30
2022-08-25T10:19:48.987Z,36.00
2022-08-25T10:24:52.340Z,35.40
2022-08-25T10:30:07.282Z,38.90
2022-08-25T10:35:16.697Z,38.60
2022-08-25T10:40:24.541Z,36.80
2022-08-25T10:45:44.976Z,35.70
2022-08-25T10:50:55.582Z,35.30
2022-08-25T10:56:09.300Z,38.30
2022-08-25T11:01:19.460Z,43.00
2022-08-25T11:06:39.945Z,41.70
2022-08-25T11:11:56.948Z,39.40
2022-08-25T11:17:05.814Z,42.10
2022-08-25T11:22:21.884Z,43.40
2022-08-25T11:27:31.435Z,46.40
2022-08-25T11:32:35.604Z,47.10
2022-08-25T11:37:46.897Z,43.70
2022-08-25T11:43:01.506Z,44.00
2022-08-25T11:48:18.920Z,46.90
2022-08-25T11:53:28.329Z,50.60
2022-08-25T11:58:38.673Z,47.70
2022-08-25T12:03:54.441Z,42.90
2022-08-25T12:09:24.888Z,40.50
2022-08-25T12:14:46.336Z,40.50
2022-08-25T12:20:00.618Z,43.80
2022-08-25T12:25:11.620Z,47.10
2022-08-25T12:30:20.937Z,49.50
2022-08-25T12:35:30.806Z,50.50
2022-08-25T12:40:38.931Z,49.80
2022-08-25T12:45:44.719Z,50.70
2022-08-25T12:50:57.683Z,49.10
2022-08-25T12:56:06.782Z,50.60
2022-08-25T13:01:35.122Z,45.20
2022-08-25T13:06:49.490Z,44.20
2022-08-25T13:12:00.639Z,43.70
2022-08-25T13:17:03.954Z,46.90
2022-08-25T13:22:16.385Z,49.10
2022-08-25T13:27:25.841Z,47.80
2022-08-25T13:32:32.281Z,49.80
2022-08-25T13:37:38.194Z,48.90
2022-08-25T13:42:45.117Z,46.00
2022-08-25T13:48:21.252Z,45.30
2022-08-25T13:53:24.211Z,47.70
2022-08-25T13:58:38.621Z,47.20
2022-08-25T14:03:48.906Z,44.10
2022-08-25T14:09:08.883Z,42.60
2022-08-25T14:14:15.148Z,45.30
2022-08-25T14:19:20.515Z,47.50
2022-08-25T14:24:24.659Z,48.00
2022-08-25T14:29:28.909Z,45.70
2022-08-25T14:34:37.238Z,42.60
2022-08-25T14:39:40.013Z,43.00
2022-08-25T14:44:48.097Z,43.50
2022-08-25T14:49:50.993Z,42.70
2022-08-25T14:54:54.299Z,39.00
2022-08-25T14:59:59.019Z,36.50
2022-08-25T15:05:06.383Z,35.20
2022-08-25T15:10:14.215Z,34.30
2022-08-25T15:15:18.934Z,34.00
2022-08-25T15:20:21.945Z,33.80
2022-08-25T15:25:24.646Z,35.80
2022-08-25T15:30:31.218Z,37.50
2022-08-25T15:35:35.306Z,37.60
2022-08-25T15:40:39.665Z,36.60
2022-08-25T15:45:46.283Z,35.70
2022-08-25T15:50:49.253Z,34.40
2022-08-25T15:55:52.326Z,33.50
2022-08-25T16:00:58.187Z,33.20
2022-08-25T16:06:04.922Z,33.00
2022-08-25T16:11:16.403Z,33.10
2022-08-25T16:16:23.219Z,32.60
2022-08-25T16:21:30.090Z,32.20
2022-08-25T16:26:33.208Z,32.00
2022-08-25T16:31:37.235Z,31.80
2022-08-25T16:36:40.677Z,31.80
2022-08-25T16:41:43.435Z,32.00
2022-08-25T16:46:47.879Z,32.10
2022-08-25T16:51:57.016Z,31.50
2022-08-25T16:57:00.747Z,30.90
2022-08-25T17:02:06.465Z,30.60
2022-08-25T17:07:09.346Z,30.40
2022-08-25T17:12:12.036Z,30.10
2022-08-25T17:17:16.248Z,30.20
2022-08-25T17:22:19.201Z,29.90
2022-08-25T17:27:23.471Z,29.40
2022-08-25T17:32:30.259Z,29.10
2022-08-25T17:37:33.823Z,28.70
2022-08-25T17:42:37.321Z,28.30
2022-08-25T17:47:41.301Z,27.90
2022-08-25T17:52:44.676Z,27.50
2022-08-25T17:57:47.343Z,27.10
2022-08-25T18:02:51.389Z,26.90
2022-08-25T18:07:54.237Z,26.70
2022-08-25T18:12:57.320Z,26.50
2022-08-25T18:18:01.733Z,26.30
2022-08-25T18:23:09.716Z,26.10
2022-08-25T18:28:12.645Z,26.00
2022-08-25T18:33:18.932Z,25.90
2022-08-25T18:38:40.246Z,25.70
2022-08-25T18:43:45.621Z,25.60
2022-08-25T18:48:49.655Z,25.40
2022-08-25T18:54:00.885Z,25.40
2022-08-25T18:59:04.863Z,25.40
2022-08-25T19:04:10.597Z,25.30
2022-08-25T19:09:13.331Z,25.20
2022-08-25T19:14:18.512Z,25.10
2022-08-25T19:19:23.121Z,24.90
2022-08-25T19:24:25.918Z,24.80
2022-08-25T19:29:30.388Z,24.70
2022-08-25T19:34:39.411Z,24.50
2022-08-25T19:39:53.273Z,24.50
2022-08-25T19:44:56.773Z,24.40
2022-08-25T19:50:00.904Z,24.50
2022-08-25T19:55:03.801Z,24.40
2022-08-25T20:00:08.868Z,24.30
2022-08-25T20:05:14.669Z,24.10
2022-08-25T20:10:17.767Z,23.90
2022-08-25T20:15:21.588Z,23.80
2022-08-25T20:20:32.668Z,23.80
2022-08-25T20:25:37.453Z,23.60
2022-08-25T20:30:45.113Z,23.50
2022-08-25T20:35:49.774Z,23.20
2022-08-25T20:40:55.733Z,23.20
2022-08-25T20:46:01.999Z,23.20
2022-08-25T20:51:07.656Z,23.20
2022-08-25T20:56:11.585Z,23.20
2022-08-25T21:01:22.873Z,23.10
2022-08-25T21:06:27.373Z,22.90
2022-08-25T21:11:33.372Z,22.70
2022-08-25T21:16:38.710Z,22.60
2022-08-25T21:21:46.235Z,22.50
2022-08-25T21:26:52.925Z,22.50
2022-08-25T21:31:55.665Z,22.60
2022-08-25T21:37:00.232Z,22.50
2022-08-25T21:42:03.469Z,22.40
2022-08-25T21:47:06.299Z,22.30
2022-08-25T21:52:10.353Z,22.10
2022-08-25T21:57:13.074Z,22.10
2022-08-25T22:02:20.542Z,22.10
2022-08-25T22:07:26.730Z,22.10
2022-08-25T22:12:29.475Z,22.30
2022-08-25T22:17:32.372Z,22.30
2022-08-25T22:22:36.452Z,22.30
2022-08-25T22:27:39.166Z,22.30
2022-08-25T22:32:42.458Z,22.10
2022-08-25T22:37:49.494Z,22.10
2022-08-25T22:42:52.220Z,22.00
2022-08-25T22:47:55.262Z,22.00
2022-08-25T22:52:59.289Z,21.90
2022-08-25T22:58:01.991Z,21.80
2022-08-25T23:03:06.780Z,21.90
2022-08-25T23:08:11.628Z,21.80
2022-08-25T23:13:33.978Z,21.70
2022-08-25T23:18:41.809Z,21.60
2022-08-25T23:23:48.539Z,21.50
2022-08-25T23:28:51.926Z,21.30
2022-08-25T23:33:54.668Z,21.20
2022-08-25T23:38:58.693Z,21.10
2022-08-25T23:44:01.388Z,21.10
2022-08-25T23:49:06.204Z,21.20
2022-08-25T23:54:13.357Z,21.30
2022-08-25T23:59:16.624Z,21.30
